createdAt,value
2018-09-19T00:30:13.224Z,952.73
2018-09-19T00:30:43.878Z,952.68
2018-09-19T00:31:43.720Z,952.72
2018-09-19T00:32:42.751Z,952.74
2018-09-19T00:33:43.326Z,952.77
2018-09-19T00:34:42.771Z,952.71
2018-09-19T00:35:42.731Z,952.72
2018-09-19T00:36:42.716Z,952.73
2018-09-19T00:37:43.042Z,952.71
2018-09-19T00:38:42.685Z,952.70
2018-09-19T00:39:42.672Z,952.69
2018-09-19T00:40:44.408Z,952.69
2018-09-19T00:41:43.616Z,952.70
2018-09-19T00:42:44.356Z,952.72
2018-09-19T00:43:44.337Z,952.72
2018-09-19T00:51:00.931Z,952.71
2018-09-19T00:51:59.874Z,952.72
2018-09-19T00:52:59.681Z,952.77
2018-09-19T00:54:00.283Z,952.76
2018-09-19T00:54:59.219Z,952.76
2018-09-19T00:56:00.037Z,952.73
2018-09-19T00:56:59.059Z,952.78
2018-09-19T00:57:59.060Z,952.79
2018-09-19T00:59:02.782Z,952.78
2018-09-19T00:59:59.054Z,952.78
2018-09-19T01:00:59.010Z,952.79
2018-09-19T01:01:59.007Z,952.80
2018-09-19T01:02:59.006Z,952.83
2018-09-19T01:03:59.147Z,952.86
2018-09-19T01:05:01.548Z,952.82
2018-09-19T01:06:00.075Z,952.81
2018-09-19T01:06:59.983Z,952.82
2018-09-19T01:08:00.545Z,952.80
2018-09-19T01:09:00.010Z,952.85
2018-09-19T01:09:58.951Z,952.84
2018-09-19T01:10:59.972Z,952.84
2018-09-19T01:11:58.879Z,952.84
2018-09-19T01:12:58.962Z,952.86
2018-09-19T01:13:58.873Z,952.87
2018-09-19T01:15:00.053Z,952.84
2018-09-19T01:15:59.900Z,952.88
2018-09-19T01:16:59.908Z,952.87
2018-09-19T01:17:58.827Z,952.87
2018-09-19T01:18:58.848Z,952.89
2018-09-19T01:19:58.832Z,952.91
2018-09-19T01:20:59.697Z,952.85
2018-09-19T01:21:59.835Z,952.88
2018-09-19T01:22:58.993Z,952.89
2018-09-19T01:23:58.892Z,952.90
2018-09-19T01:25:00.615Z,952.88
2018-09-19T01:25:59.772Z,952.82
2018-09-19T01:26:58.802Z,952.86
2018-09-19T01:27:58.750Z,952.86
2018-09-19T01:28:58.711Z,952.84
2018-09-19T01:30:39.224Z,952.82
2018-09-19T01:30:59.781Z,952.78
2018-09-19T01:31:58.691Z,952.82
2018-09-19T01:32:58.825Z,952.85
2018-09-19T01:33:59.084Z,952.84
2018-09-19T01:34:58.806Z,952.81
2018-09-19T01:35:58.807Z,952.85
2018-09-19T01:36:58.653Z,952.84
2018-09-19T01:37:58.653Z,952.87
2018-09-19T01:38:59.718Z,952.87
2018-09-19T01:39:59.541Z,952.93
2018-09-19T01:40:58.593Z,952.89
2018-09-19T01:41:59.541Z,952.89
2018-09-19T01:42:59.532Z,952.92
2018-09-19T01:43:58.496Z,952.90
2018-09-19T01:44:58.631Z,952.93
2018-09-19T01:45:58.465Z,952.90
2018-09-19T01:46:58.549Z,952.96
2018-09-19T01:47:58.473Z,953.00
2018-09-19T01:48:58.588Z,952.93
2018-09-19T01:49:59.516Z,952.94
2018-09-19T01:50:58.611Z,952.97
2018-09-19T01:52:01.005Z,952.93
2018-09-19T01:52:58.391Z,952.94
2018-09-19T01:53:58.452Z,952.97
2018-09-19T01:54:58.514Z,952.97
2018-09-19T01:55:59.426Z,952.99
2018-09-19T01:56:58.388Z,952.99
2018-09-19T01:57:58.979Z,953.01
2018-09-19T01:58:58.378Z,952.98
2018-09-19T02:00:16.552Z,952.99
2018-09-19T02:00:58.304Z,952.98
2018-09-19T02:01:58.248Z,953.02
2018-09-19T02:02:58.976Z,952.98
2018-09-19T02:03:58.237Z,953.04
2018-09-19T02:04:58.253Z,953.04
2018-09-19T02:05:59.067Z,953.12
2018-09-19T02:06:58.427Z,953.12
2018-09-19T02:07:58.271Z,953.12
2018-09-19T02:08:58.228Z,953.12
2018-09-19T02:09:58.223Z,953.12
2018-09-19T02:10:58.206Z,953.18
2018-09-19T02:11:59.151Z,953.17
2018-09-19T02:12:59.959Z,953.20
2018-09-19T02:13:58.152Z,953.21
2018-09-19T02:14:59.086Z,953.20
2018-09-19T02:15:58.099Z,953.24
2018-09-19T02:17:00.013Z,953.21
2018-09-19T02:17:58.170Z,953.20
2018-09-19T02:18:59.141Z,953.22
2018-09-19T02:19:58.140Z,953.18
2018-09-19T02:20:58.050Z,953.24
2018-09-19T02:21:59.066Z,953.27
2018-09-19T02:22:59.038Z,953.22
2018-09-19T02:23:58.069Z,953.22
2018-09-19T02:24:58.167Z,953.25
2018-09-19T02:25:59.039Z,953.23
2018-09-19T02:26:58.033Z,953.23
2018-09-19T02:27:59.079Z,953.28
2018-09-19T02:28:57.981Z,953.23
2018-09-19T02:29:59.131Z,953.26
2018-09-19T02:30:57.975Z,953.22
2018-09-19T02:31:58.043Z,953.26
2018-09-19T02:32:57.961Z,953.24
2018-09-19T02:33:57.980Z,953.24
2018-09-19T02:34:57.932Z,953.22
2018-09-19T02:35:57.891Z,953.21
2018-09-19T02:36:57.888Z,953.23
2018-09-19T02:37:58.857Z,953.18
2018-09-19T02:38:57.927Z,953.21
2018-09-19T02:39:57.916Z,953.22
2018-09-19T02:40:57.897Z,953.27
2018-09-19T02:41:58.449Z,953.27
2018-09-19T02:42:57.805Z,953.25
2018-09-19T02:43:57.783Z,953.30
2018-09-19T02:44:57.813Z,953.26
2018-09-19T02:45:57.769Z,953.29
2018-09-19T02:46:57.799Z,953.32
2018-09-19T02:47:57.845Z,953.28
2018-09-19T02:48:59.509Z,953.27
2018-09-19T02:49:59.428Z,953.30
2018-09-19T02:51:20.114Z,953.32
2018-09-19T02:53:45.810Z,953.36
2018-09-19T03:05:15.674Z,953.34
2018-09-19T03:11:44.995Z,953.38
2018-09-19T03:28:53.472Z,953.30
2018-09-19T03:29:53.692Z,953.36
2018-09-19T03:30:53.504Z,953.33
2018-09-19T03:31:53.070Z,953.37
2018-09-19T03:35:29.240Z,953.37
2018-09-19T03:36:29.216Z,953.39
2018-09-19T03:37:29.585Z,953.35
2018-09-19T03:38:49.441Z,953.37
2018-09-19T03:41:37.273Z,953.35
2018-09-19T03:42:21.017Z,953.43
2018-09-19T03:43:19.982Z,953.44
2018-09-19T03:44:20.832Z,953.43
2018-09-19T03:45:19.838Z,953.48
2018-09-19T03:46:20.954Z,953.45
2018-09-19T03:50:15.607Z,953.51
2018-09-19T03:51:46.141Z,953.51
2018-09-19T03:52:15.309Z,953.49
2018-09-19T03:53:15.251Z,953.50
2018-09-19T03:59:16.053Z,953.54
2018-09-19T04:00:07.182Z,953.60
2018-09-19T04:01:07.140Z,953.55
2018-09-19T04:02:07.306Z,953.56
2018-09-19T04:03:07.109Z,953.54
2018-09-19T04:04:07.023Z,953.54
2018-09-19T04:05:06.987Z,953.59
2018-09-19T04:06:16.905Z,953.54
2018-09-19T04:07:17.040Z,953.58
2018-09-19T04:08:07.130Z,953.60
2018-09-19T04:09:21.254Z,953.58
2018-09-19T04:10:07.161Z,953.62
2018-09-19T04:12:57.705Z,953.62
2018-09-19T04:15:03.164Z,953.63
2018-09-19T04:21:03.555Z,953.64
2018-09-19T04:27:49.046Z,953.76
2018-09-19T04:38:31.534Z,953.81
2018-09-19T04:52:25.412Z,953.90
2018-09-19T04:54:50.540Z,953.93
2018-09-19T04:57:46.466Z,953.92
2018-09-19T05:06:34.158Z,954.07
2018-09-19T05:07:34.010Z,954.12
2018-09-19T05:08:34.283Z,954.12
2018-09-19T05:09:33.964Z,954.10
2018-09-19T05:10:33.815Z,954.12
2018-09-19T05:11:34.759Z,954.11
2018-09-19T05:12:34.879Z,954.07
2018-09-19T05:13:33.807Z,954.11
2018-09-19T05:14:33.836Z,954.08
2018-09-19T05:15:34.755Z,954.06
2018-09-19T05:16:33.783Z,954.10
2018-09-19T05:17:34.631Z,954.11
2018-09-19T05:18:33.753Z,954.14
2018-09-19T05:19:34.590Z,954.17
2018-09-19T05:20:33.680Z,954.20
2018-09-19T05:21:33.696Z,954.18
2018-09-19T05:22:33.677Z,954.19
2018-09-19T05:23:33.852Z,954.19
2018-09-19T05:24:33.645Z,954.21
2018-09-19T05:25:33.636Z,954.18
2018-09-19T05:26:33.759Z,954.21
2018-09-19T05:27:33.635Z,954.21
2018-09-19T05:28:33.599Z,954.23
2018-09-19T05:29:33.595Z,954.21
2018-09-19T05:30:33.700Z,954.22
2018-09-19T05:31:34.631Z,954.26
2018-09-19T05:32:33.569Z,954.24
2018-09-19T05:33:33.557Z,954.23
2018-09-19T05:34:33.596Z,954.25
2018-09-19T05:35:33.528Z,954.28
2018-09-19T05:36:33.521Z,954.27
2018-09-19T05:37:34.495Z,954.21
2018-09-19T05:38:34.520Z,954.28
2018-09-19T05:39:33.631Z,954.24
2018-09-19T05:40:33.456Z,954.26
2018-09-19T05:41:33.437Z,954.21
2018-09-19T05:42:33.448Z,954.23
2018-09-19T05:43:33.430Z,954.27
2018-09-19T05:44:34.054Z,954.23
2018-09-19T05:45:33.400Z,954.27
2018-09-19T05:46:33.421Z,954.28
2018-09-19T05:47:33.385Z,954.30
2018-09-19T05:48:33.397Z,954.27
2018-09-19T05:49:34.362Z,954.28
2018-09-19T05:50:33.340Z,954.25
2018-09-19T05:51:33.377Z,954.26
2018-09-19T05:52:33.332Z,954.27
2018-09-19T05:53:33.319Z,954.30
2018-09-19T05:54:33.399Z,954.31
2018-09-19T05:55:33.279Z,954.33
2018-09-19T05:56:33.341Z,954.34
2018-09-19T05:57:33.262Z,954.31
2018-09-19T05:58:33.258Z,954.30
2018-09-19T05:59:33.271Z,954.33
2018-09-19T06:00:33.275Z,954.36
2018-09-19T06:01:33.225Z,954.37
2018-09-19T06:02:33.223Z,954.40
2018-09-19T06:03:33.249Z,954.44
2018-09-19T06:04:33.195Z,954.43
2018-09-19T06:05:33.196Z,954.45
2018-09-19T06:06:33.164Z,954.43
2018-09-19T06:07:33.149Z,954.47
2018-09-19T06:08:33.160Z,954.47
2018-09-19T06:09:33.156Z,954.50
2018-09-19T06:10:33.123Z,954.50
2018-09-19T06:11:33.131Z,954.52
2018-09-19T06:12:33.100Z,954.51
2018-09-19T06:13:34.128Z,954.50
2018-09-19T06:14:33.120Z,954.52
2018-09-19T06:15:34.076Z,954.53
2018-09-19T06:16:33.623Z,954.54
2018-09-19T06:17:33.054Z,954.52
2018-09-19T06:18:33.027Z,954.50
2018-09-19T06:19:33.054Z,954.53
2018-09-19T06:20:33.040Z,954.58
2018-09-19T06:21:32.999Z,954.60
2018-09-19T06:22:32.993Z,954.63
2018-09-19T06:23:33.980Z,954.58
2018-09-19T06:24:32.990Z,954.65
2018-09-19T06:25:32.953Z,954.69
2018-09-19T06:26:32.974Z,954.67
2018-09-19T06:27:32.933Z,954.69
2018-09-19T06:28:32.970Z,954.75
2018-09-19T06:29:32.907Z,954.71
2018-09-19T06:30:32.915Z,954.69
2018-09-19T06:31:32.885Z,954.71
2018-09-19T06:32:32.902Z,954.69
2018-09-19T06:33:32.935Z,954.71
2018-09-19T06:34:32.857Z,954.69
2018-09-19T06:35:32.883Z,954.75
2018-09-19T06:36:32.831Z,954.75
2018-09-19T06:37:32.835Z,954.76
2018-09-19T06:38:32.818Z,954.78
2018-09-19T06:39:32.796Z,954.74
2018-09-19T06:40:32.877Z,954.75
2018-09-19T06:41:32.808Z,954.76
2018-09-19T06:42:32.793Z,954.83
2018-09-19T06:43:32.757Z,954.81
2018-09-19T06:44:32.737Z,954.82
2018-09-19T06:45:32.812Z,954.86
2018-09-19T06:46:32.725Z,954.90
2018-09-19T06:47:32.710Z,954.91
2018-09-19T06:48:32.713Z,954.93
2018-09-19T06:49:32.727Z,954.96
2018-09-19T06:50:32.673Z,954.94
2018-09-19T06:51:32.689Z,954.99
2018-09-19T06:52:32.772Z,955.01
2018-09-19T06:53:32.642Z,954.98
2018-09-19T06:54:32.652Z,955.02
2018-09-19T06:55:32.656Z,955.02
2018-09-19T06:56:32.631Z,955.04
2018-09-19T06:57:33.627Z,955.04
2018-09-19T06:58:32.588Z,955.07
2018-09-19T06:59:32.619Z,955.18
2018-09-19T07:00:32.684Z,955.19
2018-09-19T07:01:32.546Z,955.21
2018-09-19T07:02:32.550Z,955.19
2018-09-19T07:03:32.528Z,955.21
2018-09-19T07:04:32.516Z,955.22
2018-09-19T07:05:32.515Z,955.28
2018-09-19T07:06:32.519Z,955.28
2018-09-19T07:07:32.479Z,955.33
2018-09-19T07:08:32.477Z,955.30
2018-09-19T07:09:33.309Z,955.27
2018-09-19T07:10:32.457Z,955.31
2018-09-19T07:11:32.469Z,955.29
2018-09-19T07:12:32.464Z,955.17
2018-09-19T07:13:32.412Z,955.18
2018-09-19T07:14:33.099Z,955.15
2018-09-19T07:15:32.524Z,955.18
2018-09-19T07:16:32.386Z,955.12
2018-09-19T07:17:32.399Z,955.13
2018-09-19T07:18:32.357Z,955.18
2018-09-19T07:19:33.084Z,955.14
2018-09-19T07:20:32.365Z,955.18
2018-09-19T07:21:32.368Z,955.20
2018-09-19T07:22:32.314Z,955.24
2018-09-19T07:23:32.386Z,955.22
2018-09-19T07:24:32.294Z,955.27
2018-09-19T07:25:32.303Z,955.30
2018-09-19T07:26:32.304Z,955.30
2018-09-19T07:27:32.267Z,955.35
2018-09-19T07:28:32.257Z,955.36
2018-09-19T07:29:32.234Z,955.42
2018-09-19T07:30:32.230Z,955.45
2018-09-19T07:31:32.218Z,955.45
2018-09-19T07:32:32.220Z,955.46
2018-09-19T07:33:32.192Z,955.51
2018-09-19T07:34:32.184Z,955.49
2018-09-19T07:35:32.201Z,955.52
2018-09-19T07:36:32.156Z,955.52
2018-09-19T07:37:32.596Z,955.52
2018-09-19T07:38:32.139Z,955.50
2018-09-19T07:39:32.199Z,955.52
2018-09-19T07:40:32.153Z,955.50
2018-09-19T07:41:32.100Z,955.53
2018-09-19T07:42:32.094Z,955.59
2018-09-19T07:43:32.149Z,955.58
2018-09-19T07:44:32.078Z,955.59
2018-09-19T07:45:32.105Z,955.62
2018-09-19T07:46:32.130Z,955.61
2018-09-19T07:47:32.047Z,955.62
2018-09-19T07:48:32.128Z,955.63
2018-09-19T07:49:32.037Z,955.73
2018-09-19T07:50:32.015Z,955.70
2018-09-19T07:51:32.012Z,955.73
2018-09-19T07:52:31.977Z,955.76
2018-09-19T07:53:32.565Z,955.81
2018-09-19T07:54:32.052Z,955.77
2018-09-19T07:55:31.952Z,955.77
2018-09-19T07:56:31.978Z,955.77
2018-09-19T07:57:32.578Z,955.81
2018-09-19T07:58:31.928Z,955.82
2018-09-19T07:59:31.981Z,955.81
2018-09-19T08:00:31.932Z,955.83
2018-09-19T08:01:31.891Z,955.87
2018-09-19T08:02:31.894Z,955.92
2018-09-19T08:03:31.918Z,955.85
2018-09-19T08:04:32.131Z,955.89
2018-09-19T08:05:32.846Z,955.94
2018-09-19T08:06:32.579Z,955.98
2018-09-19T08:07:31.814Z,955.94
2018-09-19T08:08:31.832Z,955.96
2018-09-19T08:09:31.795Z,955.98
2018-09-19T08:10:31.822Z,955.91
2018-09-19T08:11:31.786Z,955.91
2018-09-19T08:12:31.768Z,956.00
2018-09-19T08:13:31.752Z,955.95
2018-09-19T08:14:31.742Z,956.00
2018-09-19T08:15:31.730Z,956.02
2018-09-19T08:16:31.741Z,955.94
2018-09-19T08:17:31.703Z,955.98
2018-09-19T08:18:31.689Z,955.95
2018-09-19T08:19:31.717Z,956.00
2018-09-19T08:20:31.671Z,956.00
2018-09-19T08:21:31.675Z,956.02
2018-09-19T08:22:31.728Z,955.98
2018-09-19T08:23:31.647Z,955.96
2018-09-19T08:24:31.625Z,955.96
2018-09-19T08:25:31.614Z,956.00
2018-09-19T08:26:31.663Z,955.99
2018-09-19T08:27:31.590Z,956.02
2018-09-19T08:28:31.577Z,956.03
2018-09-19T08:29:31.570Z,956.01
2018-09-19T08:30:31.565Z,956.02
2018-09-19T08:31:31.539Z,956.00
2018-09-19T08:32:31.591Z,956.08
2018-09-19T08:33:31.546Z,956.04
2018-09-19T08:34:31.511Z,956.07
2018-09-19T08:35:31.499Z,955.99
2018-09-19T08:36:31.493Z,956.05
2018-09-19T08:37:31.483Z,956.05
2018-09-19T08:38:31.481Z,956.03
2018-09-19T08:39:31.467Z,956.04
2018-09-19T08:40:31.488Z,956.01
2018-09-19T08:41:31.426Z,955.97
2018-09-19T08:42:31.430Z,956.00
2018-09-19T08:43:31.439Z,955.95
2018-09-19T08:44:31.398Z,955.98
2018-09-19T08:45:31.395Z,955.99
2018-09-19T08:46:31.417Z,956.00
2018-09-19T08:47:32.068Z,956.00
2018-09-19T08:48:31.377Z,955.96
2018-09-19T08:49:31.345Z,955.97
2018-09-19T08:50:31.391Z,955.95
2018-09-19T08:51:31.327Z,955.97
2018-09-19T08:52:31.332Z,955.97
2018-09-19T08:53:31.324Z,955.99
2018-09-19T08:54:31.303Z,956.00
2018-09-19T08:55:31.320Z,955.95
2018-09-19T08:56:31.267Z,955.94
2018-09-19T08:57:31.249Z,955.93
2018-09-19T08:58:31.260Z,955.89
2018-09-19T08:59:31.284Z,955.91
2018-09-19T09:00:31.242Z,955.89
2018-09-19T09:01:31.213Z,955.87
2018-09-19T09:02:31.208Z,955.86
2018-09-19T09:03:31.209Z,955.81
2018-09-19T09:04:31.180Z,955.86
2018-09-19T09:05:31.179Z,955.81
2018-09-19T09:06:31.157Z,955.80
2018-09-19T09:07:31.167Z,955.82
2018-09-19T09:08:31.153Z,955.74
2018-09-19T09:09:31.121Z,955.76
2018-09-19T09:10:31.119Z,955.77
2018-09-19T09:11:32.127Z,955.73
2018-09-19T09:12:31.140Z,955.75
2018-09-19T09:13:31.103Z,955.76
2018-09-19T09:14:31.093Z,955.70
2018-09-19T09:15:31.061Z,955.72
2018-09-19T09:16:31.047Z,955.70
2018-09-19T09:17:31.062Z,955.69
2018-09-19T09:18:31.047Z,955.69
2018-09-19T09:19:31.010Z,955.72
2018-09-19T09:20:31.083Z,955.72
2018-09-19T09:21:30.997Z,955.74
2018-09-19T09:22:30.989Z,955.78
2018-09-19T09:23:30.979Z,955.70
2018-09-19T09:24:30.952Z,955.71
2018-09-19T09:25:30.947Z,955.66
2018-09-19T09:26:30.933Z,955.66
2018-09-19T09:27:30.928Z,955.68
2018-09-19T09:28:31.097Z,955.64
2018-09-19T09:29:30.915Z,955.69
2018-09-19T09:30:30.990Z,955.67
2018-09-19T09:31:30.891Z,955.58
2018-09-19T09:32:30.868Z,955.60
2018-09-19T09:33:30.857Z,955.58
2018-09-19T09:34:30.870Z,955.60
2018-09-19T09:35:30.854Z,955.59
2018-09-19T09:36:30.820Z,955.58
2018-09-19T09:37:30.818Z,955.57
2018-09-19T09:38:30.813Z,955.60
2018-09-19T09:39:30.786Z,955.59
2018-09-19T09:40:30.868Z,955.55
2018-09-19T09:41:30.780Z,955.59
2018-09-19T09:42:30.753Z,955.55
2018-09-19T09:43:30.774Z,955.59
2018-09-19T09:44:30.744Z,955.57
2018-09-19T09:45:30.731Z,955.58
2018-09-19T09:46:30.710Z,955.55
2018-09-19T09:47:30.718Z,955.57
2018-09-19T09:48:30.679Z,955.60
2018-09-19T09:49:30.683Z,955.59
2018-09-19T09:50:30.797Z,955.61
2018-09-19T09:51:31.540Z,955.62
2018-09-19T09:52:30.660Z,955.58
2018-09-19T09:54:30.621Z,955.55
2018-09-19T09:55:30.640Z,955.55
2018-09-19T09:56:30.602Z,955.59
2018-09-19T09:57:30.589Z,955.52
2018-09-19T09:58:30.584Z,955.54
2018-09-19T09:59:30.565Z,955.53
2018-09-19T10:00:30.553Z,955.54
2018-09-19T10:01:30.579Z,955.53
2018-09-19T10:02:30.545Z,955.53
2018-09-19T10:03:30.522Z,955.51
2018-09-19T10:04:30.514Z,955.55
2018-09-19T10:05:30.516Z,955.52
2018-09-19T10:06:30.544Z,955.56
2018-09-19T10:07:30.696Z,955.53
2018-09-19T10:08:30.475Z,955.61
2018-09-19T10:09:30.460Z,955.53
2018-09-19T10:10:30.455Z,955.56
2018-09-19T10:11:30.435Z,955.58
2018-09-19T10:12:30.426Z,955.53
2018-09-19T10:13:30.472Z,955.54
2018-09-19T10:14:30.416Z,955.47
2018-09-19T10:15:31.088Z,955.53
2018-09-19T10:16:30.376Z,955.49
2018-09-19T10:17:30.382Z,955.51
2018-09-19T10:18:30.365Z,955.46
2018-09-19T10:19:30.348Z,955.47
2018-09-19T10:20:30.367Z,955.42
2018-09-19T10:21:30.317Z,955.43
2018-09-19T10:22:30.310Z,955.44
2018-09-19T10:23:30.318Z,955.40
2018-09-19T10:24:30.289Z,955.43
2018-09-19T10:25:31.096Z,955.42
2018-09-19T10:26:30.298Z,955.44
2018-09-19T10:27:30.257Z,955.41
2018-09-19T10:28:30.263Z,955.42
2018-09-19T10:29:31.399Z,955.37
2018-09-19T10:30:32.109Z,955.39
2018-09-19T10:31:33.376Z,955.38
2018-09-19T10:32:32.310Z,955.36
2018-09-19T10:33:35.564Z,955.36
2018-09-19T10:34:31.065Z,955.35
2018-09-19T10:35:30.620Z,955.39
2018-09-19T10:36:31.560Z,955.38
2018-09-19T10:37:30.159Z,955.39
2018-09-19T10:38:30.160Z,955.39
2018-09-19T10:39:30.140Z,955.41
2018-09-19T10:40:30.144Z,955.36
2018-09-19T10:41:30.128Z,955.35
2018-09-19T10:42:30.100Z,955.38
2018-09-19T10:43:30.127Z,955.37
2018-09-19T10:44:30.091Z,955.40
2018-09-19T10:45:30.057Z,955.39
2018-09-19T10:46:30.049Z,955.38
2018-09-19T10:47:30.051Z,955.34
2018-09-19T10:48:30.051Z,955.36
2018-09-19T10:49:30.675Z,955.35
2018-09-19T10:50:30.009Z,955.39
2018-09-19T10:51:30.046Z,955.35
2018-09-19T10:52:29.986Z,955.31
2018-09-19T10:53:30.025Z,955.32
2018-09-19T10:54:30.041Z,955.30
2018-09-19T10:55:29.970Z,955.33
2018-09-19T10:56:29.956Z,955.29
2018-09-19T10:57:30.000Z,955.31
2018-09-19T10:58:29.955Z,955.31
2018-09-19T10:59:29.948Z,955.25
2018-09-19T11:00:29.917Z,955.27
2018-09-19T11:01:29.895Z,955.31
2018-09-19T11:02:29.907Z,955.28
2018-09-19T11:03:30.650Z,955.26
2018-09-19T11:04:30.876Z,955.24
2018-09-19T11:05:29.863Z,955.26
2018-09-19T11:06:29.846Z,955.24
2018-09-19T11:07:29.839Z,955.25
2018-09-19T11:08:29.827Z,955.23
2018-09-19T11:09:30.841Z,955.19
2018-09-19T11:10:29.784Z,955.18
2018-09-19T11:11:29.778Z,955.19
2018-09-19T11:12:29.837Z,955.21
2018-09-19T11:13:29.767Z,955.19
2018-09-19T11:14:29.741Z,955.14
2018-09-19T11:16:44.551Z,955.23
2018-09-19T11:17:44.182Z,955.17
2018-09-19T11:18:44.353Z,955.18
2018-09-19T11:19:44.066Z,955.17
2018-09-19T11:20:45.042Z,955.20
2018-09-19T11:21:44.025Z,955.20
2018-09-19T11:22:44.005Z,955.18
2018-09-19T11:23:43.983Z,955.18
2018-09-19T11:24:43.985Z,955.16
2018-09-19T11:25:43.982Z,955.18
2018-09-19T11:26:43.929Z,955.15
2018-09-19T11:27:43.961Z,955.14
2018-09-19T11:28:45.691Z,955.15
2018-09-19T11:29:43.918Z,955.18
2018-09-19T11:30:44.936Z,955.19
2018-09-19T11:31:43.897Z,955.20
2018-09-19T11:32:43.912Z,955.18
2018-09-19T11:33:43.936Z,955.15
2018-09-19T11:34:43.854Z,955.16
2018-09-19T11:35:43.830Z,955.18
2018-09-19T11:36:43.837Z,955.14
2018-09-19T11:37:43.820Z,955.11
2018-09-19T11:38:43.797Z,955.11
2018-09-19T11:39:43.808Z,955.12
2018-09-19T11:40:43.803Z,955.12
2018-09-19T11:41:43.804Z,955.12
2018-09-19T11:42:43.775Z,955.11
2018-09-19T11:43:44.735Z,955.10
2018-09-19T11:44:43.749Z,955.13
2018-09-19T11:45:43.728Z,955.17
2018-09-19T11:46:43.765Z,955.15
2018-09-19T11:47:43.733Z,955.15
2018-09-19T11:48:43.713Z,955.09
2018-09-19T11:49:43.707Z,955.11
2018-09-19T11:50:43.678Z,955.03
2018-09-19T11:51:43.669Z,955.06
2018-09-19T11:52:43.692Z,955.11
2018-09-19T11:53:43.640Z,955.06
2018-09-19T11:54:43.811Z,955.09
2018-09-19T11:55:43.611Z,955.11
2018-09-19T11:56:43.703Z,955.11
2018-09-19T11:57:44.449Z,955.09
2018-09-19T11:58:43.595Z,955.12
2018-09-19T11:59:43.640Z,955.07
2018-09-19T12:00:43.622Z,955.09
2018-09-19T12:01:43.584Z,955.11
2018-09-19T12:02:43.576Z,955.12
2018-09-19T12:03:43.544Z,955.09
2018-09-19T12:04:43.521Z,955.11
2018-09-19T12:05:43.516Z,955.12
2018-09-19T12:06:43.501Z,955.07
2018-09-19T12:07:43.536Z,955.05
2018-09-19T12:08:43.514Z,955.08
2018-09-19T12:09:43.471Z,955.08
2018-09-19T12:10:43.462Z,955.07
2018-09-19T12:11:45.213Z,955.00
2018-09-19T12:12:43.468Z,955.07
2018-09-19T12:13:44.157Z,955.01
2018-09-19T12:14:43.421Z,955.01
2018-09-19T12:15:44.389Z,955.07
2018-09-19T12:16:43.385Z,955.09
2018-09-19T12:17:43.391Z,955.05
2018-09-19T12:18:44.224Z,955.04
2018-09-19T12:19:43.356Z,955.06
2018-09-19T12:20:43.354Z,955.09
2018-09-19T12:21:43.365Z,955.06
2018-09-19T12:22:43.340Z,955.08
2018-09-19T12:23:43.351Z,955.07
2018-09-19T12:24:43.294Z,955.04
2018-09-19T12:25:43.293Z,955.04
2018-09-19T12:26:43.386Z,955.03
2018-09-19T12:27:43.394Z,955.01
2018-09-19T12:28:43.259Z,955.00
2018-09-19T12:29:44.240Z,954.98
2018-09-19T12:30:43.278Z,954.96
2018-09-19T12:31:43.223Z,954.96
2018-09-19T12:32:43.258Z,955.00
2018-09-19T12:33:43.214Z,954.97
2018-09-19T12:34:43.220Z,954.95
2018-09-19T12:35:43.171Z,954.93
2018-09-19T12:36:43.243Z,954.93
2018-09-19T12:37:43.188Z,954.97
2018-09-19T12:38:43.173Z,954.87
2018-09-19T12:39:43.207Z,954.86
2018-09-19T12:40:43.164Z,954.92
2018-09-19T12:41:43.133Z,954.92
2018-09-19T12:42:43.123Z,954.85
2018-09-19T12:43:43.143Z,954.88
2018-09-19T12:44:43.112Z,954.87
2018-09-19T12:45:43.075Z,954.84
2018-09-19T12:46:43.133Z,954.88
2018-09-19T12:47:43.044Z,954.83
2018-09-19T12:48:43.063Z,954.85
2018-09-19T12:49:43.035Z,954.87
2018-09-19T12:50:43.030Z,954.88
2018-09-19T12:51:42.992Z,954.88
2018-09-19T12:52:42.991Z,954.87
2018-09-19T12:53:42.979Z,954.91
2018-09-19T12:54:43.026Z,954.90
2018-09-19T12:55:42.983Z,954.90
2018-09-19T12:56:42.980Z,954.84
2018-09-19T12:57:42.945Z,954.84
2018-09-19T12:58:42.949Z,954.93
2018-09-19T12:59:43.713Z,954.95
2018-09-19T13:00:43.909Z,954.90
2018-09-19T13:01:42.935Z,954.89
2018-09-19T13:02:42.917Z,954.86
2018-09-19T13:03:42.862Z,954.86
2018-09-19T13:04:42.873Z,954.91
2018-09-19T13:05:42.854Z,954.86
2018-09-19T13:06:42.862Z,954.89
2018-09-19T13:07:42.839Z,954.92
2018-09-19T13:08:42.867Z,954.92
2018-09-19T13:09:42.843Z,954.94
2018-09-19T13:10:42.800Z,954.89
2018-09-19T13:11:42.795Z,954.86
2018-09-19T13:12:42.767Z,954.93
2018-09-19T13:13:43.779Z,954.94
2018-09-19T13:14:42.767Z,954.89
2018-09-19T13:15:42.761Z,954.90
2018-09-19T13:16:42.730Z,954.92
2018-09-19T13:17:42.780Z,954.98
2018-09-19T13:18:42.714Z,954.99
2018-09-19T13:19:42.735Z,954.96
2018-09-19T13:20:42.690Z,955.00
2018-09-19T13:21:42.670Z,955.00
2018-09-19T13:22:42.712Z,954.93
2018-09-19T13:23:43.234Z,954.92
2018-09-19T13:24:42.655Z,954.92
2018-09-19T13:25:42.640Z,954.91
2018-09-19T13:26:42.629Z,954.96
2018-09-19T13:27:42.688Z,954.92
2018-09-19T13:28:43.212Z,954.91
2018-09-19T13:29:42.607Z,954.93
2018-09-19T13:30:42.576Z,954.90
2018-09-19T13:31:42.609Z,954.88
2018-09-19T13:32:42.568Z,954.91
2018-09-19T13:33:42.635Z,954.88
2018-09-19T13:34:42.548Z,954.87
2018-09-19T13:35:42.528Z,954.84
2018-09-19T13:36:42.611Z,954.89
2018-09-19T13:37:42.512Z,954.85
2018-09-19T13:38:42.487Z,954.80
2018-09-19T13:39:42.593Z,954.77
2018-09-19T13:40:43.480Z,954.74
2018-09-19T13:41:42.468Z,954.80
2018-09-19T13:42:42.476Z,954.85
2018-09-19T13:43:42.469Z,954.85
2018-09-19T13:44:42.419Z,954.78
2018-09-19T13:45:42.437Z,954.83
2018-09-19T13:46:42.398Z,954.81
2018-09-19T13:47:42.485Z,954.79
2018-09-19T13:48:42.393Z,954.74
2018-09-19T13:49:42.372Z,954.81
2018-09-19T13:50:42.397Z,954.80
2018-09-19T13:51:42.348Z,954.79
2018-09-19T13:52:42.335Z,954.77
2018-09-19T13:53:42.329Z,954.82
2018-09-19T13:54:42.328Z,954.85
2018-09-19T13:55:42.351Z,954.85
2018-09-19T13:56:42.389Z,954.86
2018-09-19T13:57:42.468Z,954.94
2018-09-19T13:58:42.281Z,954.89
2018-09-19T13:59:43.233Z,954.92
2018-09-19T14:00:42.253Z,954.84
2018-09-19T14:01:42.291Z,954.88
2018-09-19T14:02:42.247Z,954.79
2018-09-19T14:03:42.221Z,954.83
2018-09-19T14:04:42.227Z,954.86
2018-09-19T14:05:42.190Z,954.79
2018-09-19T14:06:42.200Z,954.81
2018-09-19T14:07:42.731Z,954.84
2018-09-19T14:08:42.173Z,954.86
2018-09-19T14:09:42.180Z,954.88
2018-09-19T14:10:42.170Z,954.95
2018-09-19T14:11:42.202Z,954.95
2018-09-19T14:12:42.171Z,954.90
2018-09-19T14:13:42.116Z,954.89
2018-09-19T14:14:42.117Z,954.91
2018-09-19T14:15:42.110Z,954.92
2018-09-19T14:16:42.100Z,954.91
2018-09-19T14:17:42.154Z,954.92
2018-09-19T14:18:42.054Z,954.93
2018-09-19T14:19:42.083Z,954.96
2018-09-19T14:20:42.028Z,954.94
2018-09-19T14:21:42.031Z,954.92
2018-09-19T14:22:42.757Z,954.91
2018-09-19T14:23:42.018Z,954.93
2018-09-19T14:24:42.017Z,954.91
2018-09-19T14:25:41.975Z,954.88
2018-09-19T14:26:41.966Z,954.92
2018-09-19T14:27:41.971Z,954.92
2018-09-19T14:28:41.964Z,954.90
2018-09-19T14:29:41.981Z,954.90
2018-09-19T14:30:42.937Z,954.92
2018-09-19T14:31:41.929Z,954.87
2018-09-19T14:32:41.946Z,954.88
2018-09-19T14:33:41.915Z,954.91
2018-09-19T14:34:41.921Z,954.91
2018-09-19T14:35:42.002Z,954.90
2018-09-19T14:36:41.866Z,954.89
2018-09-19T14:37:41.847Z,954.90
2018-09-19T14:38:41.865Z,954.93
2018-09-19T14:39:41.880Z,954.93